Time;durP1;ratioP1;P1;durP2;ratioP2;P2;SDS_P1;SDS_P2;PMS_P1;PMS_P2;Temp;Humidity;BMP_temperature;BMP_pressure;BME280_temperature;BME280_humidity;BME280_pressure;Samples;Min_cycle;Max_cycle;Signal;HPM_P1;HPM_P2
2022/03/08 00:00:50;;;;;;;14.70;5.93;;;0.90;99.90;;;;;;5065882;28;20036;-70
2022/03/08 00:03:16;;;;;;;9.45;5.80;;;0.80;99.90;;;;;;5050816;28;20806;-70
2022/03/08 00:05:42;;;;;;;11.25;6.80;;;1.80;99.90;;;;;;5077542;28;20043;-70
2022/03/08 00:08:08;;;;;;;11.93;6.45;;;1.00;99.90;;;;;;5058841;28;20050;-70
2022/03/08 00:10:34;;;;;;;10.50;6.55;;;1.10;99.90;;;;;;5087346;28;20066;-70
2022/03/08 00:13:00;;;;;;;11.40;6.72;;;1.00;99.90;;;;;;5059629;28;20035;-71
2022/03/08 00:15:26;;;;;;;12.10;6.32;;;0.90;99.90;;;;;;5062307;28;20088;-72
2022/03/08 00:17:56;;;;;;;9.90;6.75;;;0.90;99.90;;;;;;5091322;28;20047;-70
2022/03/08 00:20:22;;;;;;;9.15;6.50;;;0.90;99.90;;;;;;5084818;28;20130;-71
2022/03/08 00:22:49;;;;;;;11.85;6.47;;;0.90;99.90;;;;;;5078876;28;20531;-71
2022/03/08 00:25:15;;;;;;;10.45;6.75;;;0.90;99.90;;;;;;5084551;28;20048;-70
2022/03/08 00:27:45;;;;;;;11.52;6.45;;;0.90;99.90;;;;;;5085911;28;20484;-71
2022/03/08 00:30:13;;;;;;;9.40;6.15;;;0.90;99.90;;;;;;5081073;28;20059;-70
2022/03/08 00:32:40;;;;;;;9.63;6.15;;;0.80;99.90;;;;;;5076476;28;20044;-72
2022/03/08 00:35:06;;;;;;;10.38;6.60;;;0.40;99.90;;;;;;5086480;28;20487;-70
2022/03/08 00:37:32;;;;;;;14.25;7.15;;;0.70;99.90;;;;;;5090008;28;20043;-70
2022/03/08 00:39:58;;;;;;;10.38;6.20;;;0.70;99.90;;;;;;5078949;28;20042;-71
2022/03/08 00:42:24;;;;;;;11.15;6.88;;;0.60;99.90;;;;;;5085087;28;20047;-70
2022/03/08 00:44:50;;;;;;;11.45;6.80;;;0.70;99.90;;;;;;5078551;28;20044;-71
2022/03/08 00:47:16;;;;;;;12.73;6.90;;;0.50;99.90;;;;;;5078399;28;20059;-71
2022/03/08 00:49:42;;;;;;;12.30;7.78;;;0.50;99.90;;;;;;5092455;28;20039;-70
2022/03/08 00:52:09;;;;;;;13.25;7.32;;;0.60;99.90;;;;;;5106136;28;20051;-70
2022/03/08 00:54:35;;;;;;;12.20;8.07;;;0.60;99.90;;;;;;5076461;28;20128;-70
2022/03/08 00:57:01;;;;;;;12.18;7.55;;;0.60;99.90;;;;;;5096057;28;20036;-70
2022/03/08 00:59:27;;;;;;;13.90;7.38;;;0.70;99.90;;;;;;5079896;28;20090;-70
2022/03/08 01:01:53;;;;;;;12.70;7.78;;;0.70;99.90;;;;;;5076882;28;20098;-71
2022/03/08 01:04:19;;;;;;;13.90;7.97;;;0.80;99.90;;;;;;5075034;28;20130;-70
2022/03/08 01:06:45;;;;;;;11.80;7.65;;;0.80;99.90;;;;;;5084815;28;20039;-70
2022/03/08 01:09:11;;;;;;;13.20;7.80;;;0.80;99.90;;;;;;5070866;28;20076;-70
2022/03/08 01:11:39;;;;;;;12.70;8.02;;;0.70;99.90;;;;;;5061231;28;20040;-70
2022/03/08 01:14:07;;;;;;;15.88;8.27;;;0.80;99.90;;;;;;5092452;28;20048;-70
2022/03/08 01:16:34;;;;;;;14.35;7.85;;;0.70;99.90;;;;;;5070803;28;20056;-72
2022/03/08 01:19:00;;;;;;;15.65;8.40;;;1.40;99.90;;;;;;5066909;28;20070;-70
2022/03/08 01:21:26;;;;;;;15.55;8.90;;;0.70;99.90;;;;;;5075832;28;20074;-69
2022/03/08 01:23:51;;;;;;;14.00;8.32;;;0.70;99.90;;;;;;5076140;28;20048;-72
2022/03/08 01:26:17;;;;;;;14.77;8.00;;;0.70;99.90;;;;;;5079086;28;20047;-70
2022/03/08 01:28:43;;;;;;;15.15;8.43;;;0.60;99.90;;;;;;5058081;28;20054;-69
2022/03/08 01:31:09;;;;;;;18.60;8.93;;;0.50;99.90;;;;;;5101349;28;20083;-69
2022/03/08 01:33:35;;;;;;;15.40;8.90;;;0.50;99.90;;;;;;5092836;28;20449;-71
2022/03/08 01:36:01;;;;;;;14.05;8.32;;;0.50;99.90;;;;;;5076397;28;20122;-70
2022/03/08 01:38:27;;;;;;;15.43;8.48;;;0.40;99.90;;;;;;5088431;28;20044;-70
2022/03/08 01:40:53;;;;;;;15.07;9.57;;;0.40;99.90;;;;;;5059718;28;20076;-70
2022/03/08 01:43:19;;;;;;;14.75;9.70;;;0.40;99.90;;;;;;5059092;28;20490;-69
2022/03/08 01:45:46;;;;;;;17.85;10.10;;;0.50;99.90;;;;;;5090905;28;20052;-71
2022/03/08 01:48:11;;;;;;;19.42;9.93;;;0.80;99.90;;;;;;5086168;28;20114;-71
2022/03/08 01:50:37;;;;;;;18.35;9.88;;;0.40;99.90;;;;;;5076377;28;20123;-70
2022/03/08 01:53:04;;;;;;;16.30;9.60;;;0.30;99.90;;;;;;5075711;28;20055;-69
2022/03/08 01:55:30;;;;;;;16.38;9.77;;;0.20;99.90;;;;;;5092325;28;20118;-70
2022/03/08 01:57:56;;;;;;;19.17;9.60;;;0.20;99.90;;;;;;5070138;28;20028;-70
2022/03/08 02:00:25;;;;;;;15.88;10.15;;;0.20;99.90;;;;;;4998231;27;20123;-72
2022/03/08 02:02:51;;;;;;;17.08;10.02;;;0.20;99.90;;;;;;5084395;28;20502;-69
2022/03/08 02:05:17;;;;;;;14.95;10.23;;;0.20;99.90;;;;;;5077201;28;20044;-70
2022/03/08 02:07:43;;;;;;;18.40;10.48;;;0.20;99.90;;;;;;5091896;28;20044;-70
2022/03/08 02:10:09;;;;;;;16.40;10.32;;;0.10;99.90;;;;;;5059133;28;20040;-71
2022/03/08 02:12:36;;;;;;;17.45;10.52;;;0.10;99.90;;;;;;5060157;28;20047;-70
2022/03/08 02:15:31;;;;;;;16.27;10.40;;;0.00;99.90;;;;;;5054565;28;20036;-71
2022/03/08 02:17:59;;;;;;;17.30;10.35;;;1.20;99.90;;;;;;5081459;28;20043;-70
2022/03/08 02:20:26;;;;;;;20.38;11.07;;;0.00;99.90;;;;;;5091698;28;20040;-70
2022/03/08 02:22:52;;;;;;;17.65;10.48;;;1.20;99.90;;;;;;5075442;28;20043;-69
2022/03/08 02:25:24;;;;;;;19.77;10.55;;;0.00;99.90;;;;;;5074198;28;20512;-71
2022/03/08 02:27:53;;;;;;;18.42;11.32;;;0.00;99.90;;;;;;5091756;28;20472;-71
2022/03/08 02:30:21;;;;;;;14.77;10.57;;;0.00;99.90;;;;;;5075250;28;20051;-71
2022/03/08 02:32:49;;;;;;;18.77;11.38;;;0.00;99.90;;;;;;5063815;28;20067;-71
2022/03/08 02:35:19;;;;;;;18.73;11.93;;;0.00;99.90;;;;;;5074687;28;20357;-70
2022/03/08 02:37:48;;;;;;;17.30;10.70;;;0.00;99.90;;;;;;5085879;28;20051;-70
2022/03/08 02:40:18;;;;;;;18.42;11.32;;;0.00;99.90;;;;;;5092121;28;20468;-70
2022/03/08 02:42:44;;;;;;;16.42;11.27;;;0.00;99.90;;;;;;5091783;28;20036;-70
2022/03/08 02:45:11;;;;;;;18.88;11.10;;;-0.20;99.90;;;;;;5074577;28;20050;-70
2022/03/08 02:47:38;;;;;;;20.77;12.45;;;-0.30;99.90;;;;;;5057913;28;20055;-70
2022/03/08 02:50:06;;;;;;;17.27;11.75;;;-0.30;99.90;;;;;;5074744;28;20032;-70
2022/03/08 02:52:33;;;;;;;17.80;11.38;;;-0.30;99.90;;;;;;5091050;28;20531;-72
2022/03/08 02:54:59;;;;;;;18.52;11.73;;;-1.20;99.90;;;;;;5074434;28;20058;-70
2022/03/08 02:57:25;;;;;;;20.23;12.18;;;-0.80;99.90;;;;;;5074386;28;20380;-70
2022/03/08 02:59:51;;;;;;;22.02;12.48;;;-0.30;99.90;;;;;;5074871;28;20052;-70
2022/03/08 03:02:17;;;;;;;22.77;13.32;;;-0.30;99.90;;;;;;5057184;28;20039;-71
2022/03/08 03:04:43;;;;;;;19.13;12.75;;;0.60;99.90;;;;;;5074562;28;20636;-72
2022/03/08 03:07:09;;;;;;;20.77;12.35;;;-0.30;99.90;;;;;;5074071;28;20071;-70
2022/03/08 03:09:35;;;;;;;21.38;12.75;;;-0.30;99.90;;;;;;5070294;28;20040;-70
2022/03/08 03:12:01;;;;;;;20.38;11.93;;;-0.10;99.90;;;;;;5095959;28;20044;-70
2022/03/08 03:14:27;;;;;;;20.23;13.02;;;-0.30;99.90;;;;;;5060402;28;20092;-71
2022/03/08 03:16:53;;;;;;;22.65;12.60;;;-0.30;99.90;;;;;;5074268;28;20310;-70
2022/03/08 03:19:18;;;;;;;22.90;12.70;;;-0.30;99.90;;;;;;5074881;28;20062;-70
2022/03/08 03:21:44;;;;;;;18.40;12.23;;;-0.80;99.90;;;;;;5074325;28;20050;-70
2022/03/08 03:24:10;;;;;;;20.55;12.75;;;-0.30;99.90;;;;;;5091267;28;20044;-69
2022/03/08 03:26:37;;;;;;;25.10;13.35;;;-0.30;99.90;;;;;;5056362;28;20031;-71
2022/03/08 03:29:03;;;;;;;21.08;13.15;;;-0.30;99.90;;;;;;5074847;28;20349;-72
2022/03/08 03:31:28;;;;;;;22.25;13.50;;;-0.30;99.90;;;;;;5057691;28;20039;-70
2022/03/08 03:33:54;;;;;;;21.60;12.45;;;-0.30;99.90;;;;;;5091376;28;20056;-69
2022/03/08 03:36:20;;;;;;;24.30;14.10;;;0.50;99.90;;;;;;5091557;28;20080;-71
2022/03/08 03:38:46;;;;;;;20.33;13.30;;;-0.40;99.90;;;;;;5060478;28;20055;-70
2022/03/08 03:41:12;;;;;;;19.67;12.98;;;-0.30;99.90;;;;;;5057531;28;20032;-69
2022/03/08 03:43:38;;;;;;;20.20;13.15;;;-0.30;99.90;;;;;;5073779;28;20042;-69
2022/03/08 03:46:05;;;;;;;24.33;13.68;;;-0.30;99.90;;;;;;5090374;28;20136;-70
2022/03/08 03:48:32;;;;;;;22.25;13.50;;;-0.30;99.90;;;;;;5090572;28;20506;-71
2022/03/08 03:50:58;;;;;;;21.70;13.00;;;-0.40;99.90;;;;;;5073848;28;20123;-70
2022/03/08 03:53:24;;;;;;;21.50;13.00;;;-0.40;99.90;;;;;;5056176;28;20388;-69
2022/03/08 03:55:50;;;;;;;21.48;13.40;;;-0.50;99.90;;;;;;5065489;28;20081;-71
2022/03/08 03:58:16;;;;;;;21.15;12.98;;;0.20;99.90;;;;;;5072577;28;20058;-69
2022/03/08 04:00:42;;;;;;;21.80;14.38;;;-0.50;99.90;;;;;;5073597;28;20044;-70
2022/03/08 04:03:07;;;;;;;22.60;13.50;;;-0.50;99.90;;;;;;5090664;28;20044;-70
2022/03/08 04:05:33;;;;;;;20.90;13.25;;;-0.50;99.90;;;;;;5056596;28;20039;-70
2022/03/08 04:08:00;;;;;;;22.90;13.73;;;-0.60;99.90;;;;;;5073140;28;20047;-69
2022/03/08 04:10:26;;;;;;;21.42;13.68;;;-0.60;99.90;;;;;;5090549;28;20039;-69
2022/03/08 04:12:52;;;;;;;19.40;12.98;;;-0.70;99.90;;;;;;5063902;28;20046;-69
2022/03/08 04:15:18;;;;;;;23.52;12.90;;;-0.70;99.90;;;;;;5056891;28;20094;-69
2022/03/08 04:17:44;;;;;;;22.75;13.27;;;-0.80;99.90;;;;;;5073657;28;20048;-70
2022/03/08 04:20:10;;;;;;;21.25;13.18;;;-0.80;99.90;;;;;;5073119;28;20084;-69
2022/03/08 04:22:37;;;;;;;20.85;12.55;;;-0.90;99.90;;;;;;5089652;28;20043;-69
2022/03/08 04:25:03;;;;;;;22.67;13.85;;;-0.90;99.90;;;;;;5072927;28;20047;-70
2022/03/08 04:27:30;;;;;;;20.83;12.85;;;-0.90;99.90;;;;;;5090485;28;20046;-69
2022/03/08 04:29:56;;;;;;;23.23;13.65;;;-1.00;99.90;;;;;;5073494;28;20036;-69
2022/03/08 04:32:21;;;;;;;25.27;14.80;;;-1.00;99.90;;;;;;5075817;28;20047;-69
2022/03/08 04:34:47;;;;;;;24.25;14.20;;;-1.00;99.90;;;;;;5093995;28;20039;-69
2022/03/08 04:37:13;;;;;;;29.88;14.15;;;-0.90;99.90;;;;;;5077132;28;20048;-70
2022/03/08 04:39:39;;;;;;;24.05;14.40;;;-0.90;99.90;;;;;;5077712;28;20043;-68
2022/03/08 04:42:05;;;;;;;22.92;14.80;;;-0.90;99.90;;;;;;5093769;28;20043;-68
2022/03/08 04:44:31;;;;;;;25.73;15.07;;;-0.80;99.90;;;;;;5094645;28;20040;-68
2022/03/08 04:46:57;;;;;;;24.98;15.63;;;-0.80;99.90;;;;;;5059337;28;20074;-68
2022/03/08 04:49:23;;;;;;;26.02;15.13;;;-0.80;99.90;;;;;;5060303;28;20044;-68
2022/03/08 04:51:49;;;;;;;25.98;14.77;;;-0.70;99.90;;;;;;5076910;28;20054;-69
2022/03/08 04:54:15;;;;;;;21.70;13.63;;;-0.70;99.90;;;;;;5077152;28;20119;-68
2022/03/08 04:56:40;;;;;;;28.10;15.18;;;-0.80;99.90;;;;;;5076619;28;20124;-68
2022/03/08 04:59:06;;;;;;;24.75;14.93;;;-0.80;99.90;;;;;;5094126;28;20040;-68
2022/03/08 05:01:32;;;;;;;23.42;14.32;;;-0.80;99.90;;;;;;5076758;28;20071;-68
2022/03/08 05:03:58;;;;;;;24.65;15.15;;;-0.80;99.90;;;;;;5060109;28;20145;-69
2022/03/08 05:06:26;;;;;;;28.73;14.65;;;-0.80;99.90;;;;;;5075580;28;20036;-69
2022/03/08 05:08:52;;;;;;;23.85;13.98;;;-0.80;99.90;;;;;;5077503;28;20115;-68
2022/03/08 05:11:18;;;;;;;24.80;14.52;;;-0.80;99.90;;;;;;5093393;28;20048;-68
2022/03/08 05:13:45;;;;;;;26.77;15.07;;;-0.80;99.90;;;;;;5093994;28;20040;-69
2022/03/08 05:16:11;;;;;;;26.55;14.43;;;-0.70;99.90;;;;;;5076053;28;20040;-68
2022/03/08 05:18:37;;;;;;;25.13;14.73;;;-0.70;99.90;;;;;;5093489;28;20122;-68
2022/03/08 05:21:03;;;;;;;26.33;14.40;;;-0.70;99.90;;;;;;5093262;28;20494;-70
2022/03/08 05:23:29;;;;;;;26.83;15.90;;;-0.70;99.90;;;;;;5076991;28;20048;-69
2022/03/08 05:25:55;;;;;;;29.23;15.32;;;-0.70;99.90;;;;;;5058802;28;20066;-68
2022/03/08 05:28:21;;;;;;;28.23;15.05;;;-0.70;99.90;;;;;;5076783;28;20054;-68
2022/03/08 05:30:46;;;;;;;26.00;15.07;;;-0.70;99.90;;;;;;5092897;28;20078;-68
2022/03/08 05:33:12;;;;;;;28.13;15.32;;;-0.70;99.90;;;;;;5075899;28;20440;-68
2022/03/08 05:35:39;;;;;;;34.40;16.30;;;-0.70;99.90;;;;;;5092658;28;20040;-68
2022/03/08 05:38:04;;;;;;;25.20;14.10;;;-0.70;99.90;;;;;;5074998;28;20047;-69
2022/03/08 05:40:31;;;;;;;27.70;15.07;;;-0.70;99.90;;;;;;5076072;28;20108;-68
2022/03/08 05:43:00;;;;;;;29.48;15.23;;;-0.60;99.90;;;;;;5091793;28;20044;-68
2022/03/08 05:45:26;;;;;;;30.20;15.25;;;-0.60;99.90;;;;;;5059024;28;20075;-68
2022/03/08 05:47:52;;;;;;;27.05;14.80;;;-0.50;99.90;;;;;;5075839;28;20105;-70
2022/03/08 05:50:18;;;;;;;29.58;15.00;;;-0.60;99.90;;;;;;5092856;28;20036;-68
2022/03/08 05:52:44;;;;;;;26.65;14.98;;;-0.60;99.90;;;;;;5093011;28;20097;-69
2022/03/08 05:55:10;;;;;;;29.08;14.73;;;-0.60;99.90;;;;;;5092329;28;20093;-69
2022/03/08 05:57:36;;;;;;;27.98;14.25;;;-0.60;99.90;;;;;;5076047;28;20052;-68
2022/03/08 06:00:05;;;;;;;28.95;14.10;;;-0.60;99.90;;;;;;5075993;28;20071;-68
2022/03/08 06:02:31;;;;;;;25.83;14.52;;;-0.60;99.90;;;;;;5091686;28;20043;-69
2022/03/08 06:04:57;;;;;;;27.58;14.85;;;-0.60;99.90;;;;;;5075459;28;20040;-68
2022/03/08 06:07:23;;;;;;;29.27;15.50;;;-0.60;99.90;;;;;;5054471;28;20056;-68
2022/03/08 06:09:49;;;;;;;30.85;15.18;;;-0.60;99.90;;;;;;5059366;28;20044;-68
2022/03/08 06:12:15;;;;;;;27.25;15.10;;;-0.60;99.90;;;;;;5058659;28;20365;-68
2022/03/08 06:14:41;;;;;;;25.05;14.10;;;-0.70;99.90;;;;;;5092340;28;20131;-70
2022/03/08 06:17:07;;;;;;;26.10;14.25;;;-0.70;99.90;;;;;;5041828;28;20040;-68
2022/03/08 06:19:34;;;;;;;30.42;14.98;;;-0.70;99.90;;;;;;5092479;28;20052;-70
2022/03/08 06:22:00;;;;;;;30.92;15.57;;;-0.60;99.90;;;;;;5092154;28;20118;-67
2022/03/08 06:24:26;;;;;;;26.88;14.05;;;-0.70;99.90;;;;;;5074984;28;20480;-69
2022/03/08 06:26:52;;;;;;;28.35;14.93;;;-0.60;99.90;;;;;;5075264;28;20126;-69
2022/03/08 06:29:17;;;;;;;31.58;15.27;;;-0.60;99.90;;;;;;5075289;28;20044;-68
2022/03/08 06:31:43;;;;;;;26.33;14.00;;;-0.50;99.90;;;;;;5058164;28;20135;-68
2022/03/08 06:34:09;;;;;;;26.08;14.07;;;-0.50;99.90;;;;;;5092262;28;20039;-68
2022/03/08 06:36:36;;;;;;;31.38;14.55;;;-0.40;99.90;;;;;;5091714;28;20036;-68
2022/03/08 06:39:03;;;;;;;28.65;14.85;;;-0.40;99.90;;;;;;5090455;28;20165;-69
2022/03/08 06:41:29;;;;;;;31.83;14.95;;;-0.30;99.90;;;;;;5091452;28;20040;-68
2022/03/08 06:43:55;;;;;;;29.13;15.38;;;-0.30;99.90;;;;;;5075150;28;20050;-68
2022/03/08 06:46:21;;;;;;;27.10;13.60;;;-0.20;99.90;;;;;;5073478;28;20497;-68
2022/03/08 06:48:47;;;;;;;31.20;15.13;;;0.50;99.90;;;;;;5092035;28;20435;-67
2022/03/08 06:51:14;;;;;;;28.27;15.55;;;-0.10;99.90;;;;;;5074944;28;20046;-67
2022/03/08 06:53:39;;;;;;;27.67;13.32;;;0.00;99.90;;;;;;5091866;28;20052;-67
2022/03/08 06:56:05;;;;;;;29.88;14.25;;;0.10;99.90;;;;;;5074015;28;20062;-68
2022/03/08 06:58:31;;;;;;;33.28;14.35;;;0.20;99.90;;;;;;5058089;28;20155;-68
2022/03/08 07:00:57;;;;;;;25.83;13.82;;;0.30;99.90;;;;;;5073913;28;20168;-68
2022/03/08 07:03:23;;;;;;;30.45;14.55;;;0.30;99.90;;;;;;5091776;28;20469;-68
2022/03/08 07:05:49;;;;;;;28.50;15.25;;;0.40;99.90;;;;;;5090902;28;20039;-68
2022/03/08 07:08:15;;;;;;;26.83;14.35;;;0.50;99.90;;;;;;5074068;28;20371;-67
2022/03/08 07:10:41;;;;;;;25.35;13.07;;;1.50;99.90;;;;;;5074835;28;20384;-69
2022/03/08 07:13:07;;;;;;;27.33;14.25;;;0.70;99.90;;;;;;5057875;28;20047;-70
2022/03/08 07:15:33;;;;;;;26.20;13.38;;;0.80;99.90;;;;;;5085118;28;20043;-73
2022/03/08 07:17:59;;;;;;;25.08;13.23;;;0.90;99.90;;;;;;5091524;28;20048;-71
2022/03/08 07:20:25;;;;;;;25.40;13.90;;;1.00;99.90;;;;;;5090275;28;20082;-68
2022/03/08 07:22:51;;;;;;;24.98;13.50;;;1.20;99.90;;;;;;5056939;28;20055;-68
2022/03/08 07:25:17;;;;;;;25.27;12.52;;;1.20;99.90;;;;;;5090568;28;20047;-68
2022/03/08 07:27:43;;;;;;;26.58;12.80;;;1.40;99.90;;;;;;5074096;28;20044;-70
2022/03/08 07:30:10;;;;;;;32.63;14.07;;;2.50;99.90;;;;;;5074207;28;20093;-68
2022/03/08 07:32:36;;;;;;;27.13;13.55;;;1.70;99.90;;;;;;5074159;28;20384;-69
2022/03/08 07:35:03;;;;;;;25.88;12.75;;;1.80;99.90;;;;;;5073631;28;20113;-70
2022/03/08 07:37:34;;;;;;;24.45;12.30;;;1.90;99.90;;;;;;5091276;28;20083;-69
2022/03/08 07:40:00;;;;;;;21.50;11.82;;;2.00;99.90;;;;;;5091049;28;20043;-69
2022/03/08 07:42:27;;;;;;;24.02;12.25;;;2.10;99.90;;;;;;5090361;28;20560;-70
2022/03/08 07:44:53;;;;;;;25.92;13.50;;;2.20;99.90;;;;;;5090162;28;20380;-70
2022/03/08 07:47:20;;;;;;;24.38;12.35;;;2.40;99.90;;;;;;5074106;28;20488;-69
2022/03/08 07:49:46;;;;;;;27.85;12.60;;;2.50;99.90;;;;;;5057324;28;20047;-69
2022/03/08 07:52:13;;;;;;;21.95;11.52;;;2.70;99.90;;;;;;5074142;28;20503;-70
2022/03/08 07:54:39;;;;;;;22.65;11.45;;;2.80;99.90;;;;;;5090046;28;20491;-70
2022/03/08 07:57:05;;;;;;;26.42;12.77;;;2.80;99.90;;;;;;5073856;28;20037;-70
2022/03/08 07:59:31;;;;;;;24.73;11.60;;;3.10;99.90;;;;;;5070012;28;20069;-69
2022/03/08 08:01:57;;;;;;;22.73;11.75;;;3.30;99.90;;;;;;5073654;28;20048;-71
2022/03/08 08:04:23;;;;;;;21.48;11.30;;;3.40;99.90;;;;;;5073437;28;20044;-71
2022/03/08 08:06:50;;;;;;;22.90;11.60;;;3.50;99.90;;;;;;5089947;28;20101;-71
2022/03/08 08:09:16;;;;;;;22.95;10.82;;;4.40;99.90;;;;;;5073632;28;20105;-69
2022/03/08 08:11:42;;;;;;;19.70;11.40;;;3.80;99.90;;;;;;5073381;28;20032;-71
2022/03/08 08:14:08;;;;;;;22.30;11.05;;;3.90;99.90;;;;;;5089977;28;20388;-70
2022/03/08 08:16:34;;;;;;;26.50;11.85;;;4.00;99.90;;;;;;5073546;28;20484;-72
2022/03/08 08:19:00;;;;;;;20.30;11.18;;;4.20;99.90;;;;;;5057176;28;20062;-73
2022/03/08 08:21:26;;;;;;;18.58;10.60;;;4.30;99.90;;;;;;5073805;28;20098;-70
2022/03/08 08:23:52;;;;;;;21.50;11.75;;;4.40;99.90;;;;;;5073381;28;20040;-71
2022/03/08 08:26:18;;;;;;;21.25;11.35;;;4.50;99.90;;;;;;5072914;28;20105;-70
2022/03/08 08:28:44;;;;;;;19.73;10.57;;;4.60;99.90;;;;;;5057162;28;20083;-71
2022/03/08 08:31:10;;;;;;;21.42;10.95;;;4.80;99.90;;;;;;5056042;28;20036;-70
2022/03/08 08:33:36;;;;;;;19.23;10.75;;;4.90;99.90;;;;;;5090683;28;20044;-70
2022/03/08 08:36:03;;;;;;;20.63;10.30;;;5.00;99.90;;;;;;5073367;28;20040;-71
2022/03/08 08:38:29;;;;;;;20.60;10.35;;;5.10;99.90;;;;;;5090671;28;20474;-70
2022/03/08 08:40:55;;;;;;;20.77;11.48;;;5.20;99.90;;;;;;5072612;28;20115;-70
2022/03/08 08:43:21;;;;;;;17.83;10.27;;;5.30;99.90;;;;;;5073860;28;20063;-70
2022/03/08 08:45:52;;;;;;;17.65;9.98;;;4.60;99.90;;;;;;5055909;28;20059;-73
2022/03/08 08:48:21;;;;;;;21.80;10.93;;;5.60;99.90;;;;;;5090521;28;20040;-69
2022/03/08 08:50:47;;;;;;;15.85;10.10;;;5.60;99.90;;;;;;5073533;28;20048;-69
2022/03/08 08:53:13;;;;;;;17.83;10.20;;;5.80;99.90;;;;;;5073298;28;20040;-70
2022/03/08 08:55:39;;;;;;;18.05;9.82;;;5.90;99.90;;;;;;5077743;28;20061;-69
2022/03/08 08:58:06;;;;;;;16.95;10.32;;;6.00;99.90;;;;;;5093753;28;20093;-69
2022/03/08 09:00:33;;;;;;;14.90;10.00;;;6.00;99.90;;;;;;5086944;28;20067;-70
2022/03/08 09:02:59;;;;;;;16.33;9.32;;;6.20;99.90;;;;;;5084366;28;20039;-69
2022/03/08 09:05:25;;;;;;;17.70;9.95;;;6.30;99.90;;;;;;5089076;28;20052;-70
2022/03/08 09:07:51;;;;;;;16.02;9.15;;;6.30;99.90;;;;;;5070783;28;20585;-81
2022/03/08 09:10:19;;;;;;;18.80;9.98;;;6.40;99.90;;;;;;5082528;28;20062;-82
2022/03/08 09:12:50;;;;;;;15.02;9.05;;;6.50;99.90;;;;;;5071907;28;20133;-78
2022/03/08 09:15:17;;;;;;;16.97;9.17;;;6.60;99.90;;;;;;5056685;28;20043;-77
2022/03/08 09:17:43;;;;;;;16.90;9.85;;;6.70;99.90;;;;;;5109659;28;20047;-77
2022/03/08 09:20:09;;;;;;;14.88;9.55;;;6.70;99.90;;;;;;5097258;28;20039;-77
2022/03/08 09:22:36;;;;;;;18.95;9.82;;;6.90;99.90;;;;;;5074950;28;20141;-77
2022/03/08 09:25:02;;;;;;;17.08;9.50;;;6.90;99.90;;;;;;5077148;28;20042;-78
2022/03/08 09:27:30;;;;;;;16.48;9.90;;;7.00;99.90;;;;;;5060075;28;20040;-78
2022/03/08 09:29:57;;;;;;;14.07;9.25;;;7.10;99.90;;;;;;5093176;28;20395;-73
2022/03/08 09:32:23;;;;;;;15.20;9.70;;;7.20;99.90;;;;;;5076713;28;20054;-77
2022/03/08 09:34:49;;;;;;;17.67;9.50;;;7.20;99.90;;;;;;5092262;28;20127;-78
2022/03/08 09:37:15;;;;;;;15.10;9.25;;;7.40;99.90;;;;;;5084117;28;20123;-78
2022/03/08 09:39:41;;;;;;;15.55;8.88;;;7.50;99.90;;;;;;5102038;28;20040;-78
2022/03/08 09:42:08;;;;;;;15.27;8.98;;;7.70;99.90;;;;;;5075872;28;20046;-78
2022/03/08 09:44:34;;;;;;;13.75;8.68;;;7.70;99.90;;;;;;5075220;28;20468;-78
2022/03/08 09:47:00;;;;;;;13.65;8.50;;;7.80;99.90;;;;;;5074967;28;20059;-78
2022/03/08 09:49:26;;;;;;;15.05;8.70;;;8.00;99.90;;;;;;5059937;28;20051;-77
2022/03/08 09:51:53;;;;;;;13.75;8.18;;;8.00;99.90;;;;;;5076106;28;20055;-77
2022/03/08 09:54:19;;;;;;;15.88;8.45;;;8.00;93.30;;;;;;5092298;28;20054;-74
2022/03/08 09:56:46;;;;;;;15.27;8.75;;;8.20;99.90;;;;;;5093509;28;20097;-72
2022/03/08 09:59:19;;;;;;;15.20;8.32;;;8.30;99.90;;;;;;5092951;28;20115;-72
2022/03/08 10:01:46;;;;;;;11.77;7.72;;;8.40;99.90;;;;;;5075500;28;20047;-73
2022/03/08 10:04:19;;;;;;;11.80;6.95;;;8.40;99.90;;;;;;5092094;28;20048;-73
2022/03/08 10:06:50;;;;;;;12.20;6.70;;;8.40;90.90;;;;;;5059580;28;20044;-73
2022/03/08 10:09:23;;;;;;;11.68;7.07;;;8.50;92.00;;;;;;5078841;28;20039;-73
2022/03/08 10:11:53;;;;;;;18.95;7.95;;;8.50;87.30;;;;;;5068756;28;20109;-72
2022/03/08 10:14:35;;;;;;;10.63;6.55;;;8.60;84.20;;;;;;5101655;28;20039;-73
2022/03/08 10:17:01;;;;;;;9.05;6.90;;;8.60;79.10;;;;;;5092559;28;20040;-73
2022/03/08 10:19:27;;;;;;;9.60;6.70;;;8.80;82.90;;;;;;5095706;28;20042;-73
2022/03/08 10:21:54;;;;;;;9.77;6.78;;;8.80;78.90;;;;;;5095932;28;20811;-73
2022/03/08 10:24:32;;;;;;;11.93;6.55;;;8.80;81.10;;;;;;5078816;28;20533;-73
2022/03/08 10:27:03;;;;;;;9.73;6.68;;;9.00;79.00;;;;;;5112719;28;20039;-74
2022/03/08 10:29:32;;;;;;;9.32;6.47;;;9.00;77.20;;;;;;5084213;28;20044;-73
2022/03/08 10:32:07;;;;;;;10.38;6.97;;;9.60;82.50;;;;;;5074372;28;20089;-73
2022/03/08 10:34:35;;;;;;;9.85;6.38;;;9.00;75.90;;;;;;5091703;28;20036;-74
2022/03/08 10:37:07;;;;;;;12.23;7.00;;;9.10;75.70;;;;;;5091899;28;20345;-73
2022/03/08 10:39:33;;;;;;;9.52;6.10;;;9.20;79.00;;;;;;5092528;28;20047;-73
2022/03/08 10:42:00;;;;;;;8.93;6.38;;;9.40;79.80;;;;;;5060729;28;20138;-73
2022/03/08 10:44:34;;;;;;;11.73;6.90;;;9.60;76.20;;;;;;5080505;28;20153;-72
2022/03/08 10:47:09;;;;;;;12.00;6.82;;;10.00;76.10;;;;;;5090528;28;20048;-72
2022/03/08 10:49:50;;;;;;;9.50;6.10;;;9.70;76.30;;;;;;5091393;28;20082;-72
2022/03/08 10:52:17;;;;;;;9.52;5.75;;;9.70;74.50;;;;;;5074638;28;20044;-72
2022/03/08 10:54:43;;;;;;;8.93;5.00;;;9.80;73.20;;;;;;5091657;28;20488;-72
2022/03/08 10:57:09;;;;;;;8.88;5.38;;;9.70;70.60;;;;;;5091713;28;20484;-73
2022/03/08 10:59:35;;;;;;;9.45;5.43;;;9.80;70.60;;;;;;5075034;28;20530;-72
2022/03/08 11:02:23;;;;;;;7.88;5.40;;;9.60;66.00;;;;;;5074415;28;20039;-72
2022/03/08 11:05:09;;;;;;;9.18;6.13;;;9.70;67.20;;;;;;5074418;28;20078;-72
2022/03/08 11:07:40;;;;;;;10.57;5.60;;;9.90;69.50;;;;;;5059591;28;20050;-72
2022/03/08 11:10:09;;;;;;;8.85;5.72;;;10.00;71.10;;;;;;5074875;28;20383;-73
2022/03/08 11:12:37;;;;;;;10.07;5.57;;;9.90;68.40;;;;;;5091332;28;20391;-73
2022/03/08 11:15:04;;;;;;;8.15;5.25;;;10.10;68.80;;;;;;5091209;28;20044;-75
2022/03/08 11:17:34;;;;;;;8.88;5.15;;;10.00;68.20;;;;;;5072810;28;20039;-72
2022/03/08 11:20:04;;;;;;;9.07;5.22;;;10.10;68.00;;;;;;5074492;28;20435;-72
2022/03/08 11:22:31;;;;;;;8.30;5.78;;;10.30;70.30;;;;;;5056034;28;20044;-74
2022/03/08 11:24:57;;;;;;;8.13;5.45;;;10.40;68.60;;;;;;5062931;28;20040;-72
2022/03/08 11:27:23;;;;;;;7.45;5.40;;;10.70;69.50;;;;;;5089969;28;20491;-73
2022/03/08 11:29:50;;;;;;;8.55;5.35;;;10.70;70.40;;;;;;5085480;28;20047;-73
2022/03/08 11:32:30;;;;;;;7.90;4.97;;;10.60;67.70;;;;;;5072452;28;20048;-73
2022/03/08 11:35:11;;;;;;;9.27;5.10;;;10.60;67.10;;;;;;5090233;28;20050;-73
2022/03/08 11:37:40;;;;;;;8.60;5.05;;;10.60;64.80;;;;;;5071197;28;20050;-73
2022/03/08 11:40:10;;;;;;;7.35;5.28;;;10.60;66.10;;;;;;5090462;28;20526;-73
2022/03/08 11:42:41;;;;;;;7.13;4.90;;;10.70;66.60;;;;;;5060039;28;20043;-73
2022/03/08 11:45:13;;;;;;;11.00;5.60;;;10.60;65.50;;;;;;5071450;28;20358;-73
2022/03/08 11:47:47;;;;;;;7.50;4.80;;;10.70;66.30;;;;;;5093753;28;20063;-73
2022/03/08 11:50:27;;;;;;;8.57;5.43;;;10.80;65.70;;;;;;5099616;28;20445;-79
2022/03/08 11:53:06;;;;;;;8.88;4.85;;;10.80;64.00;;;;;;5073832;28;20055;-76
2022/03/08 11:55:36;;;;;;;9.48;5.57;;;10.90;64.30;;;;;;5073811;28;20048;-76
2022/03/08 11:58:16;;;;;;;7.32;5.20;;;11.20;65.20;;;;;;5104465;28;20039;-75
2022/03/08 12:00:56;;;;;;;9.05;5.15;;;11.30;63.50;;;;;;5103009;28;20503;-75
2022/03/08 12:03:28;;;;;;;7.03;4.72;;;11.70;63.80;;;;;;5107962;28;20380;-75
2022/03/08 12:06:03;;;;;;;11.85;4.82;;;11.90;62.50;;;;;;5072883;28;20048;-78
2022/03/08 12:08:28;;;;;;;8.40;4.93;;;12.00;61.50;;;;;;5073236;28;20101;-77
2022/03/08 12:11:00;;;;;;;9.88;5.28;;;12.20;63.10;;;;;;5073367;28;20036;-77
2022/03/08 12:13:28;;;;;;;7.57;4.75;;;12.40;66.20;;;;;;5073632;28;20491;-77
2022/03/08 12:16:09;;;;;;;7.93;4.80;;;12.50;62.40;;;;;;5057043;28;20044;-77
2022/03/08 12:18:50;;;;;;;7.68;4.95;;;12.40;64.30;;;;;;5073613;28;20036;-77
2022/03/08 12:21:16;;;;;;;8.48;5.10;;;12.40;62.10;;;;;;5073747;28;20051;-77
2022/03/08 12:23:55;;;;;;;5.78;4.47;;;12.70;64.90;;;;;;5072901;28;20480;-78
2022/03/08 12:26:42;;;;;;;7.40;4.47;;;12.90;60.10;;;;;;5073735;28;20052;-78
2022/03/08 12:29:25;;;;;;;7.07;4.45;;;13.30;59.00;;;;;;5073059;28;20127;-76
2022/03/08 12:31:57;;;;;;;8.18;4.43;;;13.20;61.20;;;;;;5090557;28;20093;-76
2022/03/08 12:34:38;;;;;;;8.93;4.82;;;13.30;60.30;;;;;;5072882;28;20044;-76
2022/03/08 12:37:28;;;;;;;8.77;4.53;;;13.40;57.10;;;;;;5090193;28;20044;-76
2022/03/08 12:40:02;;;;;;;7.35;4.60;;;13.70;58.90;;;;;;5090285;28;20044;-79